The Hangar Logo

METARs in Plain English
Latest METAR information for EGVN - BRIZE NORTON

EGVN 211650Z 23001KT 4000 HZ FEW020 00/M01 Q1025 GRN BECMG 6000 WHT

In plain english is....

This is a METAR report for EGVN - BRIZE NORTON .
The report was made 44 minutes ago, at 16:50 UTC.
The wind was blowing at a speed of 1 knots (1.2 miles per hour, 0.5 metres per second) from the Southwest (230°).
The visibility was 2.5 miles (4.0 kilometres).
Weather was Moderate Haze .
There were a few clouds at a height of 2000 feet (610 metres).
The temperature was 0°C (32°F), a dew point of -1°C (30°F) and a relative humidity of 93.0%.
The altimeter setting (airfield QNH) was 1,025 hPa (30.27 inHg).
Other remarks GRN BECMG 6000 WHT.

UK Mainland

Ireland

Channel Islands

France

Other



Enter
Tel: 07092 887559 - Fax: 07092 183262

Content copyright © 1999-2016 TheHangar.co.uk. All rights reserved.
Please send your questions, comments, or bug reports to the Webmaster.